createdAt,value
2019-03-22T00:00:39.870Z,44.70
2019-03-22T00:03:09.427Z,44.30
2019-03-22T00:05:39.074Z,44.87
2019-03-22T00:08:08.384Z,45.87
2019-03-22T00:10:37.837Z,45.57
2019-03-22T00:13:07.483Z,44.60
2019-03-22T00:15:36.814Z,44.90
2019-03-22T00:18:06.258Z,43.57
2019-03-22T00:20:36.119Z,44.37
2019-03-22T00:23:05.527Z,44.60
2019-03-22T00:25:34.817Z,45.57
2019-03-22T00:28:04.425Z,43.70
2019-03-22T00:30:33.751Z,43.37
2019-03-22T00:33:03.424Z,46.07
2019-03-22T00:35:32.758Z,45.73
2019-03-22T00:38:02.205Z,44.03
2019-03-22T00:40:31.998Z,45.70
2019-03-22T00:43:01.332Z,44.13
2019-03-22T00:45:30.631Z,44.83
2019-03-22T00:47:59.935Z,44.77
2019-03-22T00:50:29.262Z,44.73
2019-03-22T00:52:59.172Z,44.53
2019-03-22T00:55:28.543Z,45.73
2019-03-22T00:57:58.147Z,40.30
2019-03-22T01:00:28.076Z,42.83
2019-03-22T01:02:57.799Z,41.30
2019-03-22T01:05:27.162Z,38.93
2019-03-22T01:07:56.514Z,38.90
2019-03-22T01:10:25.951Z,37.37
2019-03-22T01:12:55.567Z,40.07
2019-03-22T01:15:25.215Z,39.43
2019-03-22T01:17:54.561Z,42.97
2019-03-22T01:20:23.896Z,41.50
2019-03-22T01:22:53.764Z,39.93
2019-03-22T01:25:23.087Z,39.77
2019-03-22T01:27:52.384Z,40.40
2019-03-22T01:30:21.678Z,40.20
2019-03-22T01:32:51.351Z,40.10
2019-03-22T01:35:21.047Z,43.73
2019-03-22T01:37:50.366Z,41.50
2019-03-22T01:40:19.738Z,42.13
2019-03-22T01:42:49.700Z,40.00
2019-03-22T01:45:18.987Z,40.97
2019-03-22T01:47:48.294Z,37.93
2019-03-22T01:50:18.157Z,38.07
2019-03-22T01:52:47.886Z,39.50
2019-03-22T01:55:17.170Z,43.10
2019-03-22T01:57:53.249Z,44.87
2019-03-22T02:00:18.191Z,44.23
2019-03-22T02:02:47.594Z,43.30
2019-03-22T02:05:16.958Z,45.57
2019-03-22T02:07:46.346Z,45.60
2019-03-22T02:10:16.414Z,44.07
2019-03-22T02:12:45.825Z,41.17
2019-03-22T02:15:16.198Z,40.43
2019-03-22T02:17:46.161Z,41.27
2019-03-22T02:20:15.922Z,41.07
2019-03-22T02:22:45.388Z,44.77
2019-03-22T02:25:15.071Z,44.80
2019-03-22T02:27:44.551Z,45.07
2019-03-22T02:30:14.763Z,44.07
2019-03-22T02:32:44.262Z,43.57
2019-03-22T02:35:27.403Z,44.17
2019-03-22T02:37:45.192Z,43.57
2019-03-22T02:40:14.856Z,41.07
2019-03-22T02:42:44.511Z,40.13
2019-03-22T02:45:14.589Z,39.43
2019-03-22T02:47:43.989Z,37.70
2019-03-22T02:50:18.615Z,41.70
2019-03-22T02:52:45.220Z,40.87
2019-03-22T02:55:14.835Z,43.53
2019-03-22T02:57:44.408Z,39.07
2019-03-22T03:00:14.955Z,39.67
2019-03-22T03:02:44.366Z,38.43
2019-03-22T03:05:14.355Z,37.83
2019-03-22T03:07:44.487Z,36.97
2019-03-22T03:10:14.044Z,36.03
2019-03-22T03:12:43.755Z,37.83
2019-03-22T03:15:13.706Z,41.83
2019-03-22T03:17:43.088Z,52.63
2019-03-22T03:20:13.254Z,45.83
2019-03-22T03:22:42.576Z,44.70
2019-03-22T03:25:12.461Z,41.00
2019-03-22T03:27:42.344Z,39.30
2019-03-22T03:30:13.255Z,43.30
2019-03-22T03:32:43.138Z,45.47
2019-03-22T03:35:12.906Z,43.03
2019-03-22T03:37:42.268Z,46.17
2019-03-22T03:40:12.447Z,44.90
2019-03-22T03:42:41.733Z,44.40
2019-03-22T03:45:35.247Z,41.77
2019-03-22T03:48:07.728Z,44.60
2019-03-22T03:50:37.230Z,40.97
2019-03-22T03:53:07.097Z,40.07
2019-03-22T03:55:36.541Z,40.97
2019-03-22T03:58:06.831Z,38.67
2019-03-22T04:00:36.205Z,37.27
2019-03-22T04:03:05.966Z,39.67
2019-03-22T04:05:35.266Z,38.03
2019-03-22T04:08:04.997Z,36.30
2019-03-22T04:10:34.439Z,35.67
2019-03-22T04:13:04.612Z,35.60
2019-03-22T04:15:34.088Z,36.43
2019-03-22T04:18:03.591Z,35.60
2019-03-22T04:20:32.932Z,37.00
2019-03-22T04:23:02.299Z,35.57
2019-03-22T04:25:31.619Z,38.07
2019-03-22T04:28:00.934Z,37.67
2019-03-22T04:30:30.296Z,36.50
2019-03-22T04:32:59.920Z,36.83
2019-03-22T04:35:29.595Z,37.13
2019-03-22T04:37:59.247Z,36.13
2019-03-22T04:40:29.237Z,39.10
2019-03-22T04:42:58.869Z,42.67
2019-03-22T04:45:30.626Z,40.10
2019-03-22T04:48:14.136Z,38.80
2019-03-22T04:50:46.250Z,38.53
2019-03-22T04:53:21.738Z,38.17
2019-03-22T04:55:56.583Z,37.13
2019-03-22T04:58:27.945Z,35.03
2019-03-22T05:00:59.266Z,36.47
2019-03-22T05:03:31.017Z,39.90
2019-03-22T05:06:02.617Z,39.60
2019-03-22T05:08:34.523Z,38.37
2019-03-22T05:11:06.516Z,35.40
2019-03-22T05:13:37.455Z,36.23
2019-03-22T05:16:10.535Z,32.90
2019-03-22T05:18:44.065Z,35.73
2019-03-22T05:21:14.956Z,35.47
2019-03-22T05:23:46.392Z,34.83
2019-03-22T05:26:18.555Z,35.53
2019-03-22T05:28:48.756Z,36.63
2019-03-22T05:32:13.915Z,37.43
2019-03-22T05:34:43.223Z,37.20
2019-03-22T05:37:12.595Z,35.43
2019-03-22T05:39:42.603Z,35.17
2019-03-22T05:42:11.895Z,35.17
2019-03-22T05:44:41.209Z,34.33
2019-03-22T05:47:10.571Z,36.00
2019-03-22T05:49:39.889Z,36.40
2019-03-22T05:52:09.453Z,35.63
2019-03-22T05:54:39.205Z,35.37
2019-03-22T05:57:13.542Z,35.40
2019-03-22T05:59:42.913Z,35.10
2019-03-22T06:02:11.275Z,35.30
2019-03-22T06:04:40.572Z,37.73
2019-03-22T06:07:10.163Z,37.93
2019-03-22T06:09:39.806Z,37.10
2019-03-22T06:12:09.110Z,36.90
2019-03-22T06:14:38.458Z,39.03
2019-03-22T06:17:07.844Z,40.13
2019-03-22T06:19:37.240Z,41.70
2019-03-22T06:22:06.580Z,40.73
2019-03-22T06:24:35.969Z,41.47
2019-03-22T06:27:05.414Z,40.50
2019-03-22T06:29:34.746Z,39.90
2019-03-22T06:32:04.165Z,41.00
2019-03-22T06:34:33.483Z,41.73
2019-03-22T06:37:02.858Z,40.20
2019-03-22T06:39:32.509Z,42.03
2019-03-22T06:42:03.102Z,41.13
2019-03-22T06:44:33.171Z,41.20
2019-03-22T06:47:02.522Z,38.10
2019-03-22T06:49:31.827Z,38.57
2019-03-22T06:52:01.237Z,39.77
2019-03-22T06:54:32.035Z,36.37
2019-03-22T06:57:02.110Z,37.67
2019-03-22T06:59:31.415Z,37.80
2019-03-22T07:02:00.754Z,37.03
2019-03-22T07:04:30.401Z,37.50
2019-03-22T07:06:59.756Z,37.17
2019-03-22T07:09:29.057Z,34.80
2019-03-22T07:11:58.383Z,34.10
2019-03-22T07:14:27.707Z,31.27
2019-03-22T07:16:58.905Z,27.33
2019-03-22T07:19:28.324Z,28.23
2019-03-22T07:21:57.636Z,27.77
2019-03-22T07:24:26.927Z,27.83
2019-03-22T07:26:56.325Z,27.00
2019-03-22T07:29:25.615Z,27.40
2019-03-22T07:31:54.927Z,27.73
2019-03-22T07:34:24.524Z,26.30
2019-03-22T07:36:54.399Z,27.03
2019-03-22T07:39:24.054Z,27.67
2019-03-22T07:41:53.407Z,28.17
2019-03-22T07:44:23.311Z,28.93
2019-03-22T07:46:52.620Z,28.90
2019-03-22T07:49:21.928Z,29.37
2019-03-22T07:51:51.639Z,30.23
2019-03-22T07:54:21.240Z,30.37
2019-03-22T07:56:50.627Z,31.23
2019-03-22T07:59:20.295Z,33.27
2019-03-22T08:01:49.685Z,32.00
2019-03-22T08:04:19.258Z,34.30
2019-03-22T08:06:48.580Z,36.00
2019-03-22T08:09:17.875Z,33.27
2019-03-22T08:11:47.182Z,37.20
2019-03-22T08:14:16.673Z,40.77
2019-03-22T08:16:46.315Z,40.03
2019-03-22T08:19:15.657Z,39.97
2019-03-22T08:21:45.047Z,40.03
2019-03-22T08:24:14.418Z,36.83
2019-03-22T08:26:44.098Z,40.87
2019-03-22T08:29:14.023Z,40.10
2019-03-22T08:31:43.386Z,42.57
2019-03-22T08:34:13.304Z,41.37
2019-03-22T08:36:42.919Z,40.67
2019-03-22T08:39:12.282Z,40.83
2019-03-22T08:41:41.721Z,41.53
2019-03-22T08:44:11.058Z,39.37
2019-03-22T08:46:40.727Z,39.00
2019-03-22T08:49:10.392Z,37.90
2019-03-22T08:51:39.881Z,37.07
2019-03-22T08:54:09.203Z,35.67
2019-03-22T08:56:38.693Z,34.83
2019-03-22T08:59:08.400Z,34.03
2019-03-22T09:01:37.744Z,34.70
2019-03-22T09:04:07.388Z,37.63
2019-03-22T09:06:37.094Z,35.87
2019-03-22T09:09:08.140Z,36.40
2019-03-22T09:11:37.950Z,35.30
2019-03-22T09:14:07.382Z,36.53
2019-03-22T09:16:37.014Z,35.07
2019-03-22T09:19:07.159Z,37.27
2019-03-22T09:21:36.479Z,36.97
2019-03-22T09:24:05.844Z,35.67
2019-03-22T09:26:47.142Z,36.83
2019-03-22T09:29:06.242Z,38.23
2019-03-22T09:31:35.772Z,36.27
2019-03-22T09:34:05.099Z,39.40
2019-03-22T09:36:34.486Z,38.70
2019-03-22T09:39:05.935Z,38.70
2019-03-22T09:41:35.330Z,39.93
2019-03-22T09:44:04.868Z,39.87
2019-03-22T09:46:34.472Z,37.83
2019-03-22T09:49:03.787Z,39.23
2019-03-22T09:51:33.388Z,37.00
2019-03-22T09:54:02.801Z,38.70
2019-03-22T09:56:32.525Z,39.07
2019-03-22T09:59:02.510Z,36.73
2019-03-22T10:01:32.727Z,39.90
2019-03-22T10:04:02.742Z,38.03
2019-03-22T10:06:32.418Z,35.43
2019-03-22T10:09:05.278Z,38.70
2019-03-22T10:11:33.103Z,38.33
2019-03-22T10:14:03.039Z,38.03
2019-03-22T10:16:32.694Z,39.20
2019-03-22T10:19:02.341Z,37.97
2019-03-22T10:21:33.445Z,38.10
2019-03-22T10:24:03.148Z,40.43
2019-03-22T10:26:32.775Z,38.60
2019-03-22T10:29:02.156Z,37.07
2019-03-22T10:31:37.084Z,36.47
2019-03-22T10:34:02.849Z,38.80
2019-03-22T10:36:32.526Z,36.83
2019-03-22T10:39:01.962Z,39.80
2019-03-22T10:41:31.360Z,40.90
2019-03-22T10:44:01.053Z,39.43
2019-03-22T10:46:30.441Z,39.67
2019-03-22T10:49:00.332Z,40.57
2019-03-22T10:51:29.730Z,40.23
2019-03-22T10:53:59.089Z,37.40
2019-03-22T10:56:28.411Z,37.37
2019-03-22T10:58:58.115Z,39.07
2019-03-22T11:01:27.813Z,39.60
2019-03-22T11:03:57.304Z,39.77
2019-03-22T11:06:27.009Z,37.20
2019-03-22T11:08:56.529Z,38.90
2019-03-22T11:11:25.916Z,38.73
2019-03-22T11:13:55.300Z,40.00
2019-03-22T11:16:24.594Z,38.03
2019-03-22T11:18:54.600Z,39.63
2019-03-22T11:21:24.256Z,38.63
2019-03-22T11:23:53.594Z,39.43
2019-03-22T11:26:22.932Z,39.33
2019-03-22T11:28:52.235Z,37.47
2019-03-22T11:31:28.382Z,38.97
2019-03-22T11:33:53.230Z,37.23
2019-03-22T11:36:22.927Z,38.27
2019-03-22T11:38:53.079Z,39.63
2019-03-22T11:41:22.798Z,40.27
2019-03-22T11:43:52.195Z,39.77
2019-03-22T11:46:22.011Z,39.13
2019-03-22T11:48:51.641Z,39.30
2019-03-22T11:51:21.014Z,39.60
2019-03-22T11:53:50.351Z,39.80
2019-03-22T11:56:19.644Z,39.33
2019-03-22T11:58:48.980Z,38.67
2019-03-22T12:01:20.413Z,38.67
2019-03-22T12:03:49.576Z,37.97
2019-03-22T12:06:19.242Z,39.30
2019-03-22T12:08:48.553Z,40.43
2019-03-22T12:11:18.024Z,39.30
2019-03-22T12:13:47.403Z,38.90
2019-03-22T12:16:16.705Z,37.73
2019-03-22T12:18:46.296Z,38.53
2019-03-22T12:21:15.657Z,39.30
2019-03-22T12:23:45.000Z,37.17
2019-03-22T12:26:14.394Z,40.30
2019-03-22T12:28:43.708Z,38.87
2019-03-22T12:31:13.043Z,37.20
2019-03-22T12:33:42.776Z,41.33
2019-03-22T12:36:12.092Z,40.77
2019-03-22T12:38:41.421Z,40.63
2019-03-22T12:41:10.764Z,40.60
2019-03-22T12:43:40.160Z,39.37
2019-03-22T12:46:09.928Z,39.93
2019-03-22T12:48:39.595Z,39.87
2019-03-22T12:51:08.973Z,39.37
2019-03-22T12:53:38.621Z,40.97
2019-03-22T12:56:08.372Z,39.27
2019-03-22T12:58:38.019Z,39.80
2019-03-22T13:01:07.427Z,38.73
2019-03-22T13:03:36.732Z,38.30
2019-03-22T13:06:06.468Z,37.00
2019-03-22T13:08:35.875Z,39.57
2019-03-22T13:11:05.595Z,40.33
2019-03-22T13:13:35.176Z,39.07
2019-03-22T13:16:04.633Z,39.27
2019-03-22T13:18:33.950Z,36.90
2019-03-22T13:21:03.561Z,38.53
2019-03-22T13:23:33.428Z,38.47
2019-03-22T13:26:02.896Z,40.17
2019-03-22T13:28:32.464Z,39.00
2019-03-22T13:31:01.831Z,39.73
2019-03-22T13:33:31.504Z,37.17
2019-03-22T13:36:01.342Z,38.97
2019-03-22T13:38:30.664Z,42.13
2019-03-22T13:41:00.731Z,38.93
2019-03-22T13:43:30.060Z,39.57
2019-03-22T13:45:59.538Z,39.40
2019-03-22T13:48:28.834Z,41.70
2019-03-22T13:50:58.566Z,41.60
2019-03-22T13:53:28.766Z,40.17
2019-03-22T13:55:58.529Z,38.00
2019-03-22T13:58:28.696Z,37.43
2019-03-22T14:00:58.096Z,37.93
2019-03-22T14:03:28.640Z,37.10
2019-03-22T14:05:58.312Z,41.03
2019-03-22T14:08:28.255Z,40.43
2019-03-22T14:10:57.947Z,38.90
2019-03-22T14:13:28.075Z,38.03
2019-03-22T14:15:57.402Z,40.07
2019-03-22T14:18:26.783Z,40.63
2019-03-22T14:20:56.377Z,40.93
2019-03-22T14:23:25.999Z,40.70
2019-03-22T14:25:55.312Z,42.60
2019-03-22T14:28:25.180Z,42.03
2019-03-22T14:30:54.496Z,41.20
2019-03-22T14:33:23.856Z,41.90
2019-03-22T14:35:56.710Z,40.97
2019-03-22T14:38:26.005Z,40.37
2019-03-22T14:40:55.324Z,42.17
2019-03-22T14:43:24.673Z,40.40
2019-03-22T14:45:54.806Z,44.03
2019-03-22T14:48:24.412Z,41.23
2019-03-22T14:50:53.751Z,41.27
2019-03-22T14:53:23.128Z,40.03
2019-03-22T14:55:53.056Z,42.07
2019-03-22T14:58:22.736Z,41.70
2019-03-22T15:00:52.589Z,42.17
2019-03-22T15:03:26.687Z,40.07
2019-03-22T15:05:56.723Z,39.80
2019-03-22T15:08:26.256Z,39.57
2019-03-22T15:10:55.923Z,41.13
2019-03-22T15:13:29.671Z,38.97
2019-03-22T15:16:21.760Z,39.23
2019-03-22T15:19:00.969Z,38.37
2019-03-22T15:21:49.367Z,38.30
2019-03-22T15:24:46.172Z,38.50
2019-03-22T15:27:40.361Z,41.13
2019-03-22T15:30:24.509Z,40.73
2019-03-22T15:33:09.581Z,38.33
2019-03-22T15:36:04.525Z,38.67
2019-03-22T15:38:53.605Z,37.70
2019-03-22T15:41:23.316Z,38.57
2019-03-22T15:43:53.187Z,37.03
2019-03-22T15:46:23.185Z,38.37
2019-03-22T15:48:52.484Z,39.17
2019-03-22T15:51:22.114Z,38.50
2019-03-22T15:53:51.789Z,38.67
2019-03-22T15:56:21.735Z,38.10
2019-03-22T15:58:51.153Z,40.10
2019-03-22T16:01:20.902Z,38.37
2019-03-22T16:03:50.285Z,37.13
2019-03-22T16:06:19.654Z,37.70
2019-03-22T16:08:49.332Z,37.13
2019-03-22T16:11:18.682Z,35.70
2019-03-22T16:13:48.351Z,35.23
2019-03-22T16:16:17.666Z,37.40
2019-03-22T16:18:46.983Z,33.90
2019-03-22T16:21:16.329Z,35.53
2019-03-22T16:23:45.683Z,36.00
2019-03-22T16:26:15.340Z,36.00
2019-03-22T16:28:44.678Z,34.47
2019-03-22T16:31:14.060Z,35.93
2019-03-22T16:33:50.627Z,34.33
2019-03-22T16:36:15.015Z,33.30
2019-03-22T16:38:44.425Z,33.57
2019-03-22T16:41:14.335Z,35.33
2019-03-22T16:43:44.047Z,34.43
2019-03-22T16:46:14.201Z,32.57
2019-03-22T16:48:44.087Z,33.33
2019-03-22T16:51:13.661Z,34.07
2019-03-22T16:53:43.374Z,32.40
2019-03-22T16:56:12.661Z,31.57
2019-03-22T16:58:42.332Z,32.50
2019-03-22T17:01:13.464Z,32.00
2019-03-22T17:03:43.160Z,31.50
2019-03-22T17:06:12.472Z,31.93
2019-03-22T17:08:42.325Z,32.30
2019-03-22T17:11:11.660Z,31.23
2019-03-22T17:13:41.490Z,31.40
2019-03-22T17:16:10.805Z,30.47
2019-03-22T17:18:40.467Z,32.00
2019-03-22T17:21:09.931Z,31.47
2019-03-22T17:23:39.248Z,30.97
2019-03-22T17:26:09.238Z,31.90
2019-03-22T17:28:38.893Z,31.47
2019-03-22T17:31:08.302Z,31.27
2019-03-22T17:33:37.699Z,31.33
2019-03-22T17:36:07.006Z,31.87
2019-03-22T17:38:37.128Z,31.23
2019-03-22T17:41:06.964Z,30.67
2019-03-22T17:43:36.996Z,30.60
2019-03-22T17:46:06.424Z,31.63
2019-03-22T17:48:35.997Z,32.17
2019-03-22T17:51:05.357Z,30.93
2019-03-22T17:53:34.975Z,33.17
2019-03-22T17:56:04.895Z,32.67
2019-03-22T17:58:34.228Z,32.83
2019-03-22T18:01:03.523Z,32.07
2019-03-22T18:03:32.832Z,33.83
2019-03-22T18:06:02.121Z,32.03
2019-03-22T18:08:31.723Z,33.80
2019-03-22T18:11:01.387Z,32.80
2019-03-22T18:13:30.687Z,32.13
2019-03-22T18:16:00.240Z,33.33
2019-03-22T18:18:29.645Z,33.23
2019-03-22T18:20:58.978Z,32.77
2019-03-22T18:23:35.755Z,34.43
2019-03-22T18:26:00.206Z,34.83
2019-03-22T18:28:29.832Z,32.97
2019-03-22T18:30:59.383Z,33.50
2019-03-22T18:33:28.712Z,33.90
2019-03-22T18:35:58.323Z,31.47
2019-03-22T18:38:27.900Z,33.17
2019-03-22T18:40:57.559Z,30.93
2019-03-22T18:43:27.202Z,32.37
2019-03-22T18:45:58.599Z,31.50
2019-03-22T18:48:28.275Z,31.10
2019-03-22T18:50:57.599Z,30.80
2019-03-22T18:53:26.974Z,32.03
2019-03-22T18:55:56.636Z,31.27
2019-03-22T18:58:26.322Z,31.57
2019-03-22T19:00:55.956Z,31.87
2019-03-22T19:03:25.250Z,31.93
2019-03-22T19:05:55.004Z,32.20
2019-03-22T19:08:24.632Z,31.07
2019-03-22T19:10:53.943Z,31.77
2019-03-22T19:13:30.448Z,32.97
2019-03-22T19:15:54.590Z,31.40
2019-03-22T19:18:24.747Z,31.07
2019-03-22T19:20:54.474Z,32.10
2019-03-22T19:23:24.060Z,31.13
2019-03-22T19:25:53.352Z,31.17
2019-03-22T19:28:22.661Z,31.67
2019-03-22T19:30:52.005Z,31.80
2019-03-22T19:33:21.384Z,32.40
2019-03-22T19:35:50.670Z,31.43
2019-03-22T19:38:20.288Z,33.17
2019-03-22T19:40:49.659Z,31.47
2019-03-22T19:43:18.987Z,32.20
2019-03-22T19:45:48.867Z,30.63
2019-03-22T19:48:18.477Z,31.70
2019-03-22T19:50:47.853Z,33.40
2019-03-22T19:53:17.460Z,33.37
2019-03-22T19:55:47.108Z,33.57
2019-03-22T19:58:16.955Z,33.53
2019-03-22T20:00:46.283Z,33.33
2019-03-22T20:03:15.606Z,33.43
2019-03-22T20:05:45.332Z,33.13
2019-03-22T20:08:14.621Z,33.53
2019-03-22T20:10:43.941Z,31.80
2019-03-22T20:13:13.300Z,34.00
2019-03-22T20:15:42.877Z,33.90
2019-03-22T20:18:12.522Z,32.97
2019-03-22T20:20:42.229Z,32.50
2019-03-22T20:23:11.776Z,32.60
2019-03-22T20:25:41.079Z,32.20
2019-03-22T20:28:10.415Z,31.40
2019-03-22T20:30:39.723Z,30.60
2019-03-22T20:33:09.451Z,27.40
2019-03-22T20:35:39.077Z,26.67
2019-03-22T20:38:08.512Z,23.87
2019-03-22T20:40:37.835Z,23.27
2019-03-22T20:43:07.140Z,25.47
2019-03-22T20:45:36.774Z,25.07
2019-03-22T20:48:06.383Z,24.83
2019-03-22T20:50:36.333Z,25.10
2019-03-22T20:53:05.673Z,26.33
2019-03-22T20:55:35.791Z,29.43
2019-03-22T20:58:05.542Z,30.73
2019-03-22T21:00:35.086Z,30.60
2019-03-22T21:03:04.554Z,27.20
2019-03-22T21:05:33.935Z,26.37
2019-03-22T21:08:03.772Z,25.13
2019-03-22T21:10:33.127Z,22.77
2019-03-22T21:13:02.828Z,22.60
2019-03-22T21:15:32.422Z,22.47
2019-03-22T21:18:02.011Z,22.07
2019-03-22T21:20:31.709Z,22.33
2019-03-22T21:23:01.023Z,21.80
2019-03-22T21:25:30.844Z,23.13
2019-03-22T21:28:00.760Z,21.80
2019-03-22T21:30:30.662Z,20.10
2019-03-22T21:33:00.236Z,22.57
2019-03-22T21:35:37.261Z,21.83
2019-03-22T21:38:10.414Z,21.50
2019-03-22T21:40:32.028Z,22.30
2019-03-22T21:43:01.359Z,23.00
2019-03-22T21:45:30.700Z,21.90
2019-03-22T21:47:59.999Z,21.90
2019-03-22T21:50:29.337Z,22.40
2019-03-22T21:52:59.245Z,23.10
2019-03-22T21:55:29.162Z,22.53
2019-03-22T21:57:59.069Z,22.73
2019-03-22T22:00:28.383Z,22.33
2019-03-22T22:02:57.706Z,22.57
2019-03-22T22:05:27.036Z,21.97
2019-03-22T22:07:56.331Z,22.80
2019-03-22T22:10:25.911Z,22.83
2019-03-22T22:12:55.214Z,23.33
2019-03-22T22:15:24.937Z,20.33
2019-03-22T22:17:54.403Z,22.33
2019-03-22T22:20:28.924Z,21.33
2019-03-22T22:22:55.040Z,21.23
2019-03-22T22:25:24.377Z,21.97
2019-03-22T22:27:53.682Z,21.17
2019-03-22T22:30:23.251Z,20.80
2019-03-22T22:32:53.088Z,20.47
2019-03-22T22:35:22.467Z,20.63
2019-03-22T22:37:52.069Z,20.70
2019-03-22T22:40:21.403Z,21.07
2019-03-22T22:42:50.767Z,21.13
2019-03-22T22:45:20.078Z,19.97
2019-03-22T22:47:49.449Z,20.53
2019-03-22T22:50:19.083Z,20.47
2019-03-22T22:52:48.379Z,19.03
2019-03-22T22:55:17.709Z,19.87
2019-03-22T22:57:47.415Z,20.93
2019-03-22T23:00:17.435Z,19.23
2019-03-22T23:02:47.170Z,19.93
2019-03-22T23:05:16.554Z,18.27
2019-03-22T23:07:45.899Z,19.47
2019-03-22T23:10:15.288Z,18.50
2019-03-22T23:12:44.709Z,17.97
2019-03-22T23:15:14.651Z,18.67
2019-03-22T23:17:44.000Z,17.87
2019-03-22T23:20:13.386Z,17.67
2019-03-22T23:22:42.747Z,18.07
2019-03-22T23:25:12.398Z,18.20
2019-03-22T23:27:42.414Z,19.03
2019-03-22T23:30:12.269Z,19.60
2019-03-22T23:32:41.681Z,20.37
2019-03-22T23:35:11.608Z,18.47
2019-03-22T23:37:41.280Z,20.90
2019-03-22T23:40:10.715Z,20.03
2019-03-22T23:42:40.500Z,18.87
2019-03-22T23:45:10.365Z,19.73
2019-03-22T23:47:39.667Z,19.60
2019-03-22T23:50:09.150Z,19.27
2019-03-22T23:52:38.774Z,18.73
2019-03-22T23:55:08.396Z,18.83
2019-03-22T23:57:37.718Z,19.00
